• Join FlightAware (Why Join?)
  • Login
  • US Flag 
06:56PM EDT


 

Airport Tracker/Info


-or-


 

Live Flight TrackerFlight Track Log ✈ SWA1960 ✈ 26-Apr-2013 ✈ KMDW - KOMA

Flight Track Log - Related Links

Times and Time Zones

All times are in EDT time to prevent confusion due to time zone crossing. See the SWA1960 flight status page for this flight to view local times or setup timezone preferences in your user account.

Time Position Orientation Groundspeed Altitude Reporting Facility
EDT Latitude Longitude Course Direction KTS MPH feet Rate Location/Type
07:12PM 41.7631 -87.9186 262° West 235 270 7,100  Level Chicago Center
07:13PM 41.7644 -88.0161 271° West 259 298 11,300 2,340 Climbing Chicago Center
07:14PM 41.7633 -88.1200 269° West 278 320 12,000 480 Climbing Chicago Center
07:15PM 41.7608 -88.2281 268° West 293 337 12,400 1,800 Climbing Chicago Center
07:16PM 41.7592 -88.3819 269° West 351 404 15,800 3,240 Climbing Chicago Center
07:17PM 41.7564 -88.5167 268° West 365 420 19,200 3,180 Climbing Chicago Center
07:18PM 41.7506 -88.6528 267° West 370 426 22,400 2,700 Climbing Chicago Center
07:19PM 41.7319 -88.7919 260° West 382 440 24,800 2,280 Climbing Chicago Center
07:20PM 41.7142 -88.9347 261° West 393 452 27,200 2,820 Climbing Chicago Center
07:21PM 41.7108 -89.1081 269° West 390 449 30,700 2,940 Climbing Chicago Center
07:22PM 41.7108 -89.2414 270° West 367 422 33,300 2,160 Climbing Chicago Center
07:23PM 41.7100 -89.3725 270° West 357 411 35,200 1,260 Climbing Chicago Center
07:24PM 41.7089 -89.5053 269° West 359 413 36,000 360 Climbing Chicago Center
07:25PM 41.7072 -89.6511 269° West 361 415 36,000  Level Chicago Center
07:26PM 41.7061 -89.7839 269° West 360 414 36,000  Level Chicago Center
07:27PM 41.7039 -89.9203 269° West 365 420 36,000  Level Chicago Center
07:28PM 41.7019 -90.0558 269° West 366 421 36,000  Level Chicago Center
07:29PM 41.6994 -90.2192 269° West 367 422 36,000  Level Chicago Center
07:30PM 41.6967 -90.3608 269° West 381 438 36,000  Level Chicago Center
07:31PM 41.6939 -90.4981 268° West 373 429 36,000  Level Chicago Center
07:32PM 41.6917 -90.6339 269° West 372 428 36,000  Level Chicago Center
07:33PM 41.6878 -90.7717 268° West 373 429 36,000  Level Chicago Center
07:34PM 41.6847 -90.9364 269° West 373 429 36,000  Level Chicago Center
07:35PM 41.6814 -91.0706 268° West 366 421 36,000  Level Chicago Center
07:36PM 41.6783 -91.2072 268° West 368 423 36,000  Level Chicago Center
07:37PM 41.6747 -91.3456 268° West 373 429 36,000  Level Chicago Center
07:38PM 41.6711 -91.4825 268° West 371 427 36,000  Level Chicago Center
07:40PM 41.6678 -91.6217 268° West 374 430 36,000  Level Chicago Center
07:41PM 41.6617 -91.7886 267° West 377 434 36,000  Level Chicago Center
07:42PM 41.6586 -91.9267 268° West 375 432 36,000  Level Chicago Center
07:43PM 41.6531 -92.0664 267° West 378 435 36,000  Level Chicago Center
07:44PM 41.6492 -92.2058 268° West 377 434 36,000  Level Chicago Center
07:45PM 41.6442 -92.3456 267° West 378 435 36,000  Level Chicago Center
07:46PM 41.6381 -92.5158 267° West 383 441 36,000  Level Chicago Center
07:47PM 41.6331 -92.6553 267° West 380 437 36,000  Level Chicago Center
07:47PM 41.6294 -92.7456 267° West 383 441 36,000  Level Minneapolis Center
07:48PM 41.6242 -92.8869 267° West 384 442 36,000 -300 Level Minneapolis Center
07:49PM 41.6178 -93.0264 267° West 382 440 35,500 -720 Descending Minneapolis Center
07:50PM 41.6122 -93.1669 267° West 382 440 34,600 -780 Descending Minneapolis Center
07:51PM 41.6042 -93.3406 267° West 387 445 34,000 -300 Descending Minneapolis Center
07:53PM 41.5969 -93.4856 266° West 391 450 34,000  Level Minneapolis Center
07:54PM 41.5931 -93.6208 268° West 383 441 34,000  Level Minneapolis Center
07:55PM 41.5867 -93.7642 267° West 386 444 34,000 -300 Level Minneapolis Center
07:56PM 41.5803 -93.9086 267° West 392 451 33,500 -1,200 Descending Minneapolis Center
07:57PM 41.5711 -94.0500 265° West 389 448 31,600 -2,040 Descending Minneapolis Center
07:58PM 41.5650 -94.2092 267° West 369 425 29,300 -2,100 Descending Minneapolis Center
07:59PM 41.5528 -94.3508 263° West 359 413 27,300 -2,040 Descending Minneapolis Center
08:00PM 41.5456 -94.4833 266° West 357 411 25,200 -1,800 Descending Minneapolis Center
08:01PM 41.5422 -94.5931 268° West 365 420 23,600 -1,920 Descending Minneapolis Center
08:02PM 41.5358 -94.7519 267° West 360 414 21,300 -2,220 Descending Minneapolis Center
08:03PM 41.5425 -94.8597 275° West 358 412 19,800 -1,860 Descending Minneapolis Center
08:03PM 41.5272 -94.8814 227° Southwest 354 407 19,400 -1,500 Descending Minneapolis Center
08:04PM 41.5203 -95.0067 266° West 343 395 17,800 -1,800 Descending Minneapolis Center
08:05PM 41.5119 -95.1511 266° West 328 377 15,800 -2,700 Descending Minneapolis Center
08:06PM 41.4878 -95.2692 255° West 326 375 12,300 -2,400 Descending Minneapolis Center
08:07PM 41.4603 -95.3997 254° West 348 400 10,900 -1,260 Descending Minneapolis Center
08:08PM 41.4292 -95.5000 248° West 328 377 9,800 -1,200 Descending Minneapolis Center
08:09PM 41.4128 -95.6197 260° West 265 305 8,400 -1,800 Descending Minneapolis Center
08:10PM 41.4028 -95.7181 262° West 266 306 6,100 -2,220 Descending Minneapolis Center
08:11PM 41.3936 -95.8025 262° West 254 292 4,200 -1,740 Descending Minneapolis Center
08:11PM 41.3928 -95.8081 259° West 265 305 4,000 -1,800 Descending Minneapolis Center
08:12PM 41.3892 -95.8919 267° West 242 278 2,400 -1,560 Descending Minneapolis Center
08:12PM 41.3889 -95.9150 269° West 253 291 2,400 -120 Level Minneapolis Center
08:13PM 41.3719 -95.9494 237° Southwest 162 186 2,300 -300 Descending Minneapolis Center
08:13PM 41.3592 -95.9433 160° South 190 219 2,100 -720 Descending Minneapolis Center
08:14PM 41.3375 -95.9342 162° South 117 135 1,600 -720 Descending Minneapolis Center
08:14PM 41.3278 -95.9183 129° Southeast 149 171 1,400 -360 Descending Minneapolis Center
08:15PM 41.3000 -95.8925 145° Southeast 143 165 1,100 -300 Descending Minneapolis Center
08:17PM 41.3000 -95.8833 246° West  Level FlightAware Approximate